createdAt,value
2018-06-28T00:00:30.973Z,16.50
2018-06-28T00:03:06.474Z,16.50
2018-06-28T00:05:40.897Z,16.50
2018-06-28T00:10:51.249Z,16.50
2018-06-28T00:15:59.911Z,16.40
2018-06-28T00:18:34.203Z,16.50
2018-06-28T00:21:09.317Z,16.50
2018-06-28T00:23:44.480Z,16.40
2018-06-28T00:26:19.184Z,16.40
2018-06-28T00:28:55.001Z,16.30
2018-06-28T00:31:29.808Z,16.30
2018-06-28T00:34:05.368Z,16.20
2018-06-28T00:36:40.649Z,16.20
2018-06-28T00:39:15.551Z,16.20
2018-06-28T00:41:51.296Z,16.20
2018-06-28T00:49:35.953Z,16.00
2018-06-28T00:52:10.926Z,16.00
2018-06-28T00:54:45.291Z,16.00
2018-06-28T00:57:21.031Z,15.90
2018-06-28T01:00:00.073Z,15.90
2018-06-28T01:02:35.199Z,15.80
2018-06-28T01:05:10.148Z,15.80
2018-06-28T01:07:44.969Z,15.80
2018-06-28T01:10:20.067Z,15.70
2018-06-28T01:12:55.263Z,15.70
2018-06-28T01:15:31.642Z,15.60
2018-06-28T01:18:08.205Z,15.50
2018-06-28T01:23:20.036Z,15.50
2018-06-28T01:25:54.245Z,15.50
2018-06-28T01:28:29.057Z,15.50
2018-06-28T01:31:03.360Z,15.50
2018-06-28T01:33:38.398Z,15.40
2018-06-28T01:36:12.845Z,15.40
2018-06-28T01:38:48.900Z,15.40
2018-06-28T01:41:25.229Z,15.30
2018-06-28T01:43:59.456Z,15.30
2018-06-28T01:46:34.869Z,15.20
2018-06-28T01:49:09.903Z,15.20
2018-06-28T01:51:45.373Z,15.10
2018-06-28T01:54:21.509Z,15.10
2018-06-28T01:56:56.069Z,15.00
2018-06-28T01:59:30.832Z,15.00
2018-06-28T02:02:05.195Z,14.90
2018-06-28T02:04:40.064Z,14.90
2018-06-28T02:07:14.904Z,14.80
2018-06-28T02:09:49.064Z,14.70
2018-06-28T02:12:23.852Z,14.70
2018-06-28T02:14:59.673Z,14.70
2018-06-28T02:17:34.999Z,14.70
2018-06-28T02:20:11.397Z,14.60
2018-06-28T02:22:46.744Z,14.70
2018-06-28T02:25:22.560Z,14.70
2018-06-28T02:27:57.564Z,14.60
2018-06-28T02:30:32.839Z,14.60
2018-06-28T02:33:07.893Z,14.60
2018-06-28T02:35:43.664Z,14.60
2018-06-28T02:38:17.980Z,14.50
2018-06-28T02:40:59.944Z,14.50
2018-06-28T02:43:35.317Z,14.50
2018-06-28T02:46:11.220Z,14.50
2018-06-28T02:48:45.899Z,14.50
2018-06-28T02:51:20.582Z,14.40
2018-06-28T02:53:56.666Z,14.40
2018-06-28T02:56:32.554Z,14.40
2018-06-28T02:59:07.864Z,14.40
2018-06-28T03:01:42.037Z,14.40
2018-06-28T03:04:16.312Z,14.40
2018-06-28T03:06:50.733Z,14.40
2018-06-28T03:09:27.425Z,14.40
2018-06-28T03:12:03.178Z,14.40
2018-06-28T03:14:38.312Z,14.40
2018-06-28T03:17:13.667Z,14.40
2018-06-28T03:19:48.249Z,14.30
2018-06-28T03:22:22.816Z,14.30
2018-06-28T03:24:56.987Z,14.30
2018-06-28T03:27:33.809Z,14.30
2018-06-28T03:30:10.897Z,14.30
2018-06-28T03:32:46.155Z,14.30
2018-06-28T03:35:21.061Z,14.30
2018-06-28T03:37:56.635Z,14.30
2018-06-28T03:40:32.988Z,14.40
2018-06-28T03:43:07.880Z,14.50
2018-06-28T03:45:42.441Z,14.50
2018-06-28T03:48:17.786Z,14.50
2018-06-28T03:50:54.243Z,14.60
2018-06-28T03:53:28.560Z,14.60
2018-06-28T03:56:05.972Z,14.70
2018-06-28T03:58:40.765Z,14.70
2018-06-28T04:01:16.082Z,14.80
2018-06-28T04:03:56.720Z,14.80
2018-06-28T04:06:31.963Z,14.90
2018-06-28T04:09:10.858Z,14.90
2018-06-28T04:11:46.616Z,14.90
2018-06-28T04:14:29.221Z,15.00
2018-06-28T04:17:03.949Z,14.90
2018-06-28T04:19:40.183Z,15.00
2018-06-28T04:22:22.186Z,15.00
2018-06-28T04:24:56.663Z,15.10
2018-06-28T04:27:36.516Z,15.20
2018-06-28T04:30:12.566Z,15.20
2018-06-28T04:32:49.532Z,15.30
2018-06-28T04:35:26.178Z,15.30
2018-06-28T04:38:01.553Z,15.40
2018-06-28T04:40:37.120Z,15.50
2018-06-28T04:43:12.442Z,15.60
2018-06-28T04:45:47.170Z,15.60
2018-06-28T04:48:21.488Z,15.70
2018-06-28T04:50:56.574Z,15.70
2018-06-28T04:53:32.025Z,15.80
2018-06-28T04:56:07.008Z,15.90
2018-06-28T04:58:42.130Z,16.00
2018-06-28T05:01:17.940Z,16.10
2018-06-28T05:03:53.620Z,16.20
2018-06-28T05:06:29.242Z,16.30
2018-06-28T05:09:04.349Z,16.40
2018-06-28T05:11:38.604Z,16.40
2018-06-28T05:14:14.873Z,16.60
2018-06-28T05:16:49.822Z,16.60
2018-06-28T05:19:24.529Z,16.70
2018-06-28T05:21:59.801Z,16.80
2018-06-28T05:24:35.755Z,16.80
2018-06-28T05:27:11.305Z,16.90
2018-06-28T05:29:45.804Z,17.00
2018-06-28T05:32:27.056Z,17.10
2018-06-28T05:35:01.413Z,17.20
2018-06-28T05:37:36.252Z,17.30
2018-06-28T05:40:12.035Z,17.50
2018-06-28T05:42:47.012Z,17.60
2018-06-28T05:45:21.752Z,17.60
2018-06-28T05:47:56.690Z,17.80
2018-06-28T05:50:30.925Z,17.90
2018-06-28T05:53:05.472Z,17.90
2018-06-28T05:55:43.518Z,18.00
2018-06-28T05:58:19.483Z,18.10
2018-06-28T06:00:55.992Z,18.30
2018-06-28T06:03:31.130Z,18.30
2018-06-28T06:06:09.442Z,18.40
2018-06-28T06:08:43.741Z,18.40
2018-06-28T06:11:17.983Z,18.50
2018-06-28T06:13:53.069Z,18.60
2018-06-28T06:16:32.712Z,18.70
2018-06-28T06:19:07.733Z,18.70
2018-06-28T06:21:43.505Z,18.80
2018-06-28T06:24:18.057Z,18.90
2018-06-28T06:26:52.597Z,19.10
2018-06-28T06:29:26.815Z,19.20
2018-06-28T06:32:01.740Z,19.30
2018-06-28T06:34:37.093Z,19.30
2018-06-28T06:37:11.300Z,19.40
2018-06-28T06:39:45.646Z,19.50
2018-06-28T06:42:21.086Z,19.70
2018-06-28T06:44:55.278Z,19.80
2018-06-28T06:47:29.532Z,19.90
2018-06-28T06:50:03.930Z,20.10
2018-06-28T06:52:39.437Z,20.10
2018-06-28T06:55:13.717Z,20.20
2018-06-28T06:57:50.145Z,20.10
2018-06-28T07:00:24.360Z,20.10
2018-06-28T07:03:00.800Z,20.10
2018-06-28T07:08:10.489Z,20.40
2018-06-28T07:10:49.289Z,20.50
2018-06-28T07:13:24.968Z,20.60
2018-06-28T07:16:00.256Z,20.80
2018-06-28T07:18:36.128Z,20.90
2018-06-28T07:21:17.267Z,20.90
2018-06-28T07:23:52.447Z,20.90
2018-06-28T07:26:26.697Z,21.00
2018-06-28T07:29:01.155Z,21.20
2018-06-28T07:31:37.780Z,21.40
2018-06-28T07:34:16.321Z,21.40
2018-06-28T07:36:52.549Z,21.40
2018-06-28T07:39:29.298Z,21.50
2018-06-28T07:42:04.830Z,21.50
2018-06-28T07:44:41.163Z,21.50
2018-06-28T07:49:52.645Z,21.60
2018-06-28T07:52:27.418Z,21.50
2018-06-28T07:55:01.633Z,21.60
2018-06-28T07:57:40.049Z,21.80
2018-06-28T08:00:16.108Z,22.00
2018-06-28T08:02:52.329Z,22.10
2018-06-28T08:05:29.856Z,22.10
2018-06-28T08:08:05.180Z,22.10
2018-06-28T08:10:40.903Z,22.20
2018-06-28T08:15:53.660Z,22.60
2018-06-28T08:18:32.484Z,22.60
2018-06-28T08:21:13.734Z,22.70
2018-06-28T08:23:51.295Z,22.50
2018-06-28T08:26:27.992Z,22.50
2018-06-28T08:29:05.516Z,22.60
2018-06-28T08:31:42.161Z,22.70
2018-06-28T08:34:22.623Z,22.90
2018-06-28T08:36:59.961Z,23.10
2018-06-28T08:39:36.279Z,23.10
2018-06-28T08:42:11.477Z,23.30
2018-06-28T08:44:50.172Z,23.40
2018-06-28T08:47:29.745Z,23.50
2018-06-28T08:50:04.655Z,23.30
2018-06-28T08:52:42.731Z,23.50
2018-06-28T08:55:19.089Z,23.60
2018-06-28T08:57:54.094Z,23.70
2018-06-28T09:00:31.094Z,23.80
2018-06-28T09:03:10.226Z,23.70
2018-06-28T09:05:46.322Z,23.80
2018-06-28T09:08:28.803Z,23.90
2018-06-28T09:11:05.404Z,23.80
2018-06-28T09:13:42.369Z,23.90
2018-06-28T09:16:25.491Z,23.80
2018-06-28T09:19:05.930Z,23.80
2018-06-28T09:21:41.904Z,24.00
2018-06-28T09:24:16.212Z,24.20
2018-06-28T09:26:51.400Z,24.40
2018-06-28T09:29:27.116Z,24.40
2018-06-28T09:32:01.366Z,24.50
2018-06-28T09:34:36.599Z,24.50
2018-06-28T09:37:11.616Z,24.60
2018-06-28T09:39:47.008Z,24.50
2018-06-28T09:42:23.772Z,24.50
2018-06-28T09:44:59.356Z,24.40
2018-06-28T09:47:34.808Z,24.40
2018-06-28T09:50:11.968Z,24.60
2018-06-28T09:52:54.472Z,24.90
2018-06-28T09:55:28.638Z,25.20
2018-06-28T09:58:04.172Z,25.40
2018-06-28T10:00:42.481Z,25.30
2018-06-28T10:03:20.785Z,25.20
2018-06-28T10:05:56.365Z,25.30
2018-06-28T10:08:33.700Z,25.50
2018-06-28T10:11:12.158Z,25.70
2018-06-28T10:13:47.092Z,25.80
2018-06-28T10:16:23.188Z,25.90
2018-06-28T10:18:57.580Z,25.80
2018-06-28T10:21:35.647Z,25.90
2018-06-28T10:24:13.868Z,26.10
2018-06-28T10:26:51.293Z,26.10
2018-06-28T10:29:27.626Z,26.40
2018-06-28T10:32:03.692Z,26.60
2018-06-28T10:34:40.272Z,26.80
2018-06-28T10:37:17.004Z,27.00
2018-06-28T10:39:51.689Z,27.10
2018-06-28T10:42:28.396Z,27.50
2018-06-28T10:45:07.182Z,27.70
2018-06-28T10:47:42.364Z,27.90
2018-06-28T10:50:17.768Z,27.90
2018-06-28T10:52:54.730Z,27.70
2018-06-28T10:55:29.573Z,27.60
2018-06-28T10:58:04.280Z,27.70
2018-06-28T11:03:17.512Z,27.40
2018-06-28T11:05:52.511Z,27.10
2018-06-28T11:08:31.269Z,26.90
2018-06-28T11:11:05.806Z,26.90
2018-06-28T11:13:40.404Z,26.70
2018-06-28T11:16:19.844Z,26.40
2018-06-28T11:18:57.063Z,26.40
2018-06-28T11:21:31.655Z,26.80
2018-06-28T11:24:07.800Z,27.00
2018-06-28T11:29:21.496Z,27.10
2018-06-28T11:31:58.643Z,27.00
2018-06-28T11:34:32.927Z,27.00
2018-06-28T11:37:08.955Z,27.10
2018-06-28T11:39:43.443Z,27.20
2018-06-28T11:44:51.819Z,27.50
2018-06-28T11:47:27.032Z,27.60
2018-06-28T11:50:02.875Z,28.00
2018-06-28T11:52:39.040Z,28.20
2018-06-28T11:55:13.313Z,28.30
2018-06-28T11:57:48.152Z,28.40
2018-06-28T12:00:23.821Z,28.30
2018-06-28T12:02:59.824Z,28.40
2018-06-28T12:05:34.078Z,28.50
2018-06-28T12:08:11.723Z,28.80
2018-06-28T12:10:45.935Z,28.90
2018-06-28T12:13:20.408Z,29.20
2018-06-28T12:16:02.089Z,30.00
2018-06-28T12:18:42.976Z,30.10
2018-06-28T12:21:21.080Z,29.10
2018-06-28T12:23:56.752Z,28.70
2018-06-28T12:26:35.244Z,28.70
2018-06-28T12:29:12.100Z,29.50
2018-06-28T12:31:49.103Z,30.50
2018-06-28T12:34:24.861Z,31.90
2018-06-28T12:36:59.666Z,32.50
2018-06-28T12:39:39.327Z,32.40
2018-06-28T12:42:17.434Z,32.50
2018-06-28T12:44:53.308Z,32.70
2018-06-28T12:47:43.279Z,33.30
2018-06-28T12:50:20.737Z,33.50
2018-06-28T12:53:06.272Z,34.30
2018-06-28T12:56:48.017Z,34.30
2018-06-28T12:59:23.102Z,33.20
2018-06-28T13:01:58.021Z,32.60
2018-06-28T13:04:33.156Z,31.70
2018-06-28T13:07:07.833Z,31.10
2018-06-28T13:09:43.856Z,30.40
2018-06-28T13:12:20.775Z,29.80
2018-06-28T13:14:57.460Z,30.30
2018-06-28T13:17:32.854Z,30.50
2018-06-28T13:20:09.726Z,30.70
2018-06-28T13:22:46.615Z,31.80
2018-06-28T13:25:22.657Z,33.40
2018-06-28T13:27:56.978Z,34.50
2018-06-28T13:30:31.908Z,35.90
2018-06-28T13:33:10.358Z,36.70
2018-06-28T13:38:20.598Z,37.40
2018-06-28T13:40:55.060Z,35.80
2018-06-28T13:43:30.664Z,35.30
2018-06-28T13:48:42.122Z,35.10
2018-06-28T13:51:19.282Z,36.50
2018-06-28T13:53:54.085Z,37.50
2018-06-28T13:56:28.850Z,38.40
2018-06-28T13:59:04.861Z,38.60
2018-06-28T14:01:39.791Z,37.70
2018-06-28T14:04:18.291Z,36.70
2018-06-28T14:06:53.395Z,36.50
2018-06-28T14:09:27.831Z,35.20
2018-06-28T14:12:02.413Z,35.40
2018-06-28T14:14:37.737Z,36.80
2018-06-28T14:17:12.145Z,36.50
2018-06-28T14:22:22.753Z,36.60
2018-06-28T14:24:56.840Z,36.30
2018-06-28T14:27:31.497Z,34.40
2018-06-28T14:30:07.021Z,33.00
2018-06-28T14:32:46.025Z,32.90
2018-06-28T14:35:21.392Z,34.40
2018-06-28T14:37:57.166Z,36.30
2018-06-28T14:40:34.287Z,37.90
2018-06-28T14:43:10.424Z,38.40
2018-06-28T14:45:45.559Z,38.40
2018-06-28T14:48:23.517Z,39.40
2018-06-28T14:50:58.707Z,38.70
2018-06-28T14:53:32.918Z,35.60
2018-06-28T14:56:08.335Z,34.90
2018-06-28T14:58:44.274Z,33.80
2018-06-28T15:01:21.216Z,33.80
2018-06-28T15:03:55.729Z,34.10
2018-06-28T15:06:31.637Z,33.40
2018-06-28T15:09:14.812Z,34.50
2018-06-28T15:11:50.560Z,36.80
2018-06-28T15:14:25.244Z,38.20
2018-06-28T15:16:59.705Z,38.30
2018-06-28T15:19:34.548Z,38.60
2018-06-28T15:22:08.795Z,36.80
2018-06-28T15:24:43.923Z,35.50
2018-06-28T15:27:18.733Z,34.30
2018-06-28T15:29:54.409Z,34.80
2018-06-28T15:32:33.481Z,35.30
2018-06-28T15:35:11.179Z,38.30
2018-06-28T15:37:46.032Z,38.90
2018-06-28T15:40:20.955Z,36.60
2018-06-28T15:42:59.050Z,34.60
2018-06-28T15:45:34.336Z,33.60
2018-06-28T15:48:08.863Z,36.40
2018-06-28T15:50:43.367Z,39.30
2018-06-28T15:53:19.109Z,39.30
2018-06-28T15:55:53.878Z,36.90
2018-06-28T15:58:30.208Z,34.60
2018-06-28T16:01:05.982Z,36.50
2018-06-28T16:03:41.019Z,36.50
2018-06-28T16:06:23.087Z,35.90
2018-06-28T16:09:02.335Z,35.20
2018-06-28T16:11:39.740Z,34.10
2018-06-28T16:16:57.902Z,35.30
2018-06-28T16:19:32.716Z,37.80
2018-06-28T16:22:12.357Z,39.10
2018-06-28T16:24:49.037Z,40.30
2018-06-28T16:27:24.469Z,40.30
2018-06-28T16:32:34.974Z,36.70
2018-06-28T16:35:09.973Z,34.80
2018-06-28T16:37:45.116Z,34.00
2018-06-28T16:40:19.428Z,32.70
2018-06-28T16:42:54.259Z,32.50
2018-06-28T16:45:42.093Z,32.10
2018-06-28T16:48:20.318Z,31.60
2018-06-28T16:50:54.751Z,34.20
2018-06-28T16:53:30.792Z,36.30
2018-06-28T16:56:07.063Z,38.30
2018-06-28T16:58:44.572Z,39.50
2018-06-28T17:01:19.658Z,39.40
2018-06-28T17:04:02.940Z,40.70
2018-06-28T17:06:41.723Z,41.70
2018-06-28T17:09:17.799Z,39.50
2018-06-28T17:11:54.020Z,36.40
2018-06-28T17:14:28.900Z,37.10
2018-06-28T17:17:05.692Z,38.30
2018-06-28T17:19:46.479Z,37.60
2018-06-28T17:22:26.134Z,35.30
2018-06-28T17:25:03.041Z,34.00
2018-06-28T17:27:41.709Z,34.40
2018-06-28T17:30:17.752Z,33.00
2018-06-28T17:33:00.596Z,31.40
2018-06-28T17:35:41.573Z,30.60
2018-06-28T17:38:28.452Z,32.80
2018-06-28T17:41:12.756Z,35.50
2018-06-28T17:43:49.841Z,37.30
2018-06-28T17:46:39.087Z,37.40
2018-06-28T17:49:17.495Z,37.40
2018-06-28T17:51:54.306Z,37.50
2018-06-28T17:54:29.771Z,38.20
2018-06-28T17:57:05.648Z,38.70
2018-06-28T17:59:41.584Z,38.30
2018-06-28T18:02:18.319Z,38.50
2018-06-28T18:04:54.595Z,39.00
2018-06-28T18:07:30.260Z,38.20
2018-06-28T18:10:04.468Z,37.80
2018-06-28T18:12:39.530Z,38.00
2018-06-28T18:15:17.033Z,37.90
2018-06-28T18:17:51.201Z,38.10
2018-06-28T18:20:28.808Z,37.80
2018-06-28T18:23:05.530Z,37.40
2018-06-28T18:25:41.873Z,36.30
2018-06-28T18:28:17.991Z,36.00
2018-06-28T18:30:55.501Z,35.60
2018-06-28T18:33:33.024Z,35.10
2018-06-28T18:36:09.513Z,34.20
2018-06-28T18:38:44.799Z,34.40
2018-06-28T18:41:20.049Z,34.20
2018-06-28T18:43:54.655Z,33.90
2018-06-28T18:46:31.832Z,32.90
2018-06-28T18:49:13.958Z,31.90
2018-06-28T18:51:57.895Z,30.90
2018-06-28T18:54:35.911Z,29.60
2018-06-28T18:57:11.769Z,28.40
2018-06-28T18:59:52.952Z,27.70
2018-06-28T19:02:28.318Z,27.20
2018-06-28T19:05:03.219Z,26.90
2018-06-28T19:07:39.319Z,26.50
2018-06-28T19:10:20.149Z,26.30
2018-06-28T19:12:54.504Z,26.10
2018-06-28T19:15:36.034Z,26.00
2018-06-28T19:18:12.309Z,25.70
2018-06-28T19:20:52.821Z,25.60
2018-06-28T19:23:33.128Z,25.40
2018-06-28T19:26:07.863Z,25.30
2018-06-28T19:28:47.610Z,25.10
2018-06-28T19:31:32.748Z,24.90
2018-06-28T19:34:10.434Z,24.70
2018-06-28T19:36:45.597Z,24.60
2018-06-28T19:39:26.041Z,24.40
2018-06-28T19:42:11.596Z,24.20
2018-06-28T19:44:46.987Z,24.10
2018-06-28T19:47:25.884Z,23.90
2018-06-28T19:50:07.124Z,23.80
2018-06-28T19:52:50.251Z,23.60
2018-06-28T19:55:28.886Z,23.50
2018-06-28T19:58:10.064Z,23.40
2018-06-28T20:00:50.814Z,23.20
2018-06-28T20:03:33.709Z,23.20
2018-06-28T20:06:11.190Z,23.10
2018-06-28T20:08:50.295Z,22.90
2018-06-28T20:11:31.011Z,22.80
2018-06-28T20:14:11.774Z,22.70
2018-06-28T20:16:56.397Z,22.60
2018-06-28T20:20:38.592Z,22.50
2018-06-28T20:23:17.273Z,22.40
2018-06-28T20:25:56.313Z,22.30
2018-06-28T20:28:41.744Z,22.20
2018-06-28T20:31:27.801Z,22.10
2018-06-28T20:34:08.412Z,22.00
2018-06-28T20:36:45.130Z,22.00
2018-06-28T20:39:22.260Z,21.90
2018-06-28T20:42:02.439Z,21.80
2018-06-28T20:44:38.848Z,21.70
2018-06-28T20:47:14.998Z,21.60
2018-06-28T20:49:51.058Z,21.50
2018-06-28T20:52:25.335Z,21.50
2018-06-28T20:54:59.693Z,21.40
2018-06-28T20:57:34.009Z,21.30
2018-06-28T21:00:10.887Z,21.30
2018-06-28T21:02:53.452Z,21.20
2018-06-28T21:05:31.674Z,21.20
2018-06-28T21:08:08.620Z,21.10
2018-06-28T21:10:45.273Z,21.00
2018-06-28T21:13:19.600Z,20.90
2018-06-28T21:15:54.577Z,20.80
2018-06-28T21:18:29.233Z,20.70
2018-06-28T21:21:06.948Z,20.60
2018-06-28T21:23:42.227Z,20.60
2018-06-28T21:26:18.960Z,20.50
2018-06-28T21:28:54.526Z,20.50
2018-06-28T21:31:29.876Z,20.40
2018-06-28T21:34:07.008Z,20.30
2018-06-28T21:36:41.932Z,20.30
2018-06-28T21:39:18.089Z,20.30
2018-06-28T21:41:54.972Z,20.20
2018-06-28T21:44:35.195Z,20.20
2018-06-28T21:47:12.070Z,20.10
2018-06-28T21:49:47.356Z,20.10
2018-06-28T21:52:27.890Z,20.00
2018-06-28T21:55:08.035Z,19.90
2018-06-28T21:57:46.242Z,19.90
2018-06-28T22:00:29.206Z,19.90
2018-06-28T22:03:08.548Z,19.80
2018-06-28T22:05:46.259Z,19.80
2018-06-28T22:08:21.576Z,19.80
2018-06-28T22:10:55.928Z,19.70
2018-06-28T22:13:32.308Z,19.70
2018-06-28T22:16:07.334Z,19.60
2018-06-28T22:18:43.216Z,19.60
2018-06-28T22:21:17.796Z,19.50
2018-06-28T22:23:52.140Z,19.50
2018-06-28T22:26:26.580Z,19.40
2018-06-28T22:31:38.649Z,19.30
2018-06-28T22:34:17.844Z,19.20
2018-06-28T22:36:53.542Z,19.20
2018-06-28T22:39:28.994Z,19.10
2018-06-28T22:42:05.762Z,19.10
2018-06-28T22:44:41.614Z,19.00
2018-06-28T22:47:16.445Z,19.00
2018-06-28T22:49:51.787Z,18.90
2018-06-28T22:52:26.841Z,18.80
2018-06-28T22:55:02.564Z,18.80
2018-06-28T22:57:36.851Z,18.70
2018-06-28T23:00:14.142Z,18.70
2018-06-28T23:02:50.288Z,18.70
2018-06-28T23:05:29.614Z,18.60
2018-06-28T23:08:05.097Z,18.60
2018-06-28T23:10:39.773Z,18.50
2018-06-28T23:13:16.410Z,18.50
2018-06-28T23:15:50.630Z,18.40
2018-06-28T23:18:26.225Z,18.40
2018-06-28T23:21:02.769Z,18.30
2018-06-28T23:23:41.632Z,18.30
2018-06-28T23:28:53.032Z,18.20
2018-06-28T23:31:27.254Z,18.10
2018-06-28T23:34:02.817Z,18.10
2018-06-28T23:36:39.157Z,18.10
2018-06-28T23:39:15.575Z,18.00
2018-06-28T23:41:53.397Z,18.00
2018-06-28T23:44:28.471Z,18.00
2018-06-28T23:47:04.316Z,17.90
2018-06-28T23:49:40.728Z,17.90
2018-06-28T23:52:16.062Z,17.80
2018-06-28T23:54:57.930Z,17.80
2018-06-28T23:57:32.998Z,17.70
